This is the latest recevied weather packets stored in our database for station/object 5B4APJ-13. If no packets are shown the sender has not sent any weather packets the latest 1 day(s).
| Time | Temp. | Humidity | Pressure | Rain* | Wind** | Luminosity | Snow |
|---|---|---|---|---|---|---|---|
| 1778065622 | 20° C | 48% | 1016.5 hPa | 0 mm | 2.68 m/s, 99° | 301 W/m² | - |
| 1778065022 | 18.89° C | 53% | 1017 hPa | 0 mm | 0.89 m/s, 245° | 852 W/m² | - |
| 1778063523 | 18.33° C | 53% | 1016.7 hPa | 0 mm | 1.79 m/s, 137° | 905 W/m² | - |
| 1778062923 | 18.89° C | 51% | 1016.9 hPa | 0 mm | 4.02 m/s, 174° | 865 W/m² | - |
| 1778062623 | 18.89° C | 51% | 1017 hPa | 0 mm | 1.79 m/s, 75° | 904 W/m² | - |
| 1778062323 | 17.78° C | 53% | 1017 hPa | 0 mm | 0.89 m/s, 180° | 1107 W/m² | - |
| 1778061422 | 18.33° C | 53% | 1017.1 hPa | 0 mm | 1.34 m/s, 252° | 192 W/m² | - |
| 1778060823 | 18.33° C | 52% | 1017.4 hPa | 0 mm | 2.68 m/s, 102° | 278 W/m² | - |
| 1778060523 | 19.44° C | 50% | 1017.3 hPa | 0 mm | 0.89 m/s, 269° | 362 W/m² | - |
| 1778059922 | 18.33° C | 53% | 1017.1 hPa | 0 mm | 2.24 m/s, 148° | 829 W/m² | - |
| 1778058722 | 17.78° C | 53% | 1017.4 hPa | 0 mm | 1.34 m/s, 97° | 342 W/m² | - |
| 1778058423 | 17.78° C | 54% | 1017.1 hPa | 0 mm | 0.89 m/s, 96° | 165 W/m² | - |
| 1778058122 | 17.78° C | 53% | 1017 hPa | 0 mm | 1.34 m/s, 120° | 124 W/m² | - |
| 1778057522 | 18.33° C | 53% | 1017.6 hPa | 0 mm | 0.45 m/s, 312° | 159 W/m² | - |
| 1778057222 | 18.33° C | 50% | 1017.3 hPa | 0 mm | 1.34 m/s, 132° | 214 W/m² | - |
| 1778056922 | 19.44° C | 49% | 1017.3 hPa | 0 mm | 0.45 m/s, 117° | 368 W/m² | - |
| 1778056322 | 18.89° C | 48% | 1017.2 hPa | 0 mm | 1.79 m/s, 170° | 259 W/m² | - |
| 1778055722 | 20° C | 45% | 1017.3 hPa | 0 mm | 1.79 m/s, 213° | 873 W/m² | - |
| 1778055122 | 19.44° C | 48% | 1017.1 hPa | 0 mm | 1.34 m/s, 197° | 271 W/m² | - |
| 1778054822 | 18.33° C | 48% | 1017.3 hPa | 0 mm | 2.24 m/s, 177° | 865 W/m² | - |
| 1778054222 | 18.89° C | 47% | 1017.3 hPa | 0 mm | 2.24 m/s, 98° | 805 W/m² | - |
| 1778053622 | 18.89° C | 47% | 1017.2 hPa | 0 mm | 3.58 m/s, 181° | 339 W/m² | - |
| 1778053322 | 18.89° C | 48% | 1017.2 hPa | 0 mm | 0.89 m/s, 117° | 788 W/m² | - |
| 1778053022 | 18.89° C | 47% | 1017.3 hPa | 0 mm | 1.34 m/s, 211° | 746 W/m² | - |
| 1778052722 | 18.33° C | 49% | 1017.3 hPa | 0 mm | 1.34 m/s, 193° | 732 W/m² | - |
* Rain latest hour (hover to see other rain measurements)
** Current wind speed in m/s (hover to see current wind gust speed)